Time;durP1;ratioP1;P1;durP2;ratioP2;P2;SDS_P1;SDS_P2;PMS_P1;PMS_P2;Temp;Humidity;BMP_temperature;BMP_pressure;BME280_temperature;BME280_humidity;BME280_pressure;Samples;Min_cycle;Max_cycle;Signal;HPM_P1;HPM_P2
2022/04/26 03:37:12;;;;;;;15.80;8.13;;;7.30;99.90;;;;;;5031124;28;20195;-73
2022/04/26 03:39:39;;;;;;;18.67;7.20;;;7.30;99.90;;;;;;5033109;28;20044;-73
2022/04/26 03:42:24;;;;;;;16.58;7.75;;;7.30;99.90;;;;;;5043075;28;20328;-73
2022/04/26 03:44:49;;;;;;;14.57;6.50;;;7.30;99.90;;;;;;5053692;28;20071;-73
2022/04/26 03:47:17;;;;;;;15.80;6.75;;;7.30;99.90;;;;;;5055180;28;20468;-73
2022/04/26 03:49:43;;;;;;;16.23;6.40;;;6.70;99.90;;;;;;5034541;28;20083;-73
2022/04/26 03:52:09;;;;;;;14.55;5.78;;;7.30;99.90;;;;;;5053545;28;20037;-72
2022/04/26 03:54:34;;;;;;;20.38;6.18;;;7.30;99.90;;;;;;5045514;28;20044;-73
2022/04/26 03:57:00;;;;;;;19.70;5.93;;;7.30;99.90;;;;;;5037367;28;20040;-73
2022/04/26 03:59:26;;;;;;;18.15;6.82;;;7.30;99.90;;;;;;5060858;28;20037;-73
2022/04/26 04:01:52;;;;;;;13.95;6.15;;;7.30;99.90;;;;;;5047032;28;20055;-72
2022/04/26 04:04:18;;;;;;;17.48;5.55;;;7.30;99.90;;;;;;5034315;28;20068;-73
2022/04/26 04:06:44;;;;;;;16.10;5.10;;;7.30;99.90;;;;;;5061436;28;20076;-73
2022/04/26 04:09:09;;;;;;;14.75;5.25;;;7.30;99.90;;;;;;5063989;28;20033;-73
2022/04/26 04:11:35;;;;;;;13.63;5.80;;;7.30;99.90;;;;;;5050846;28;20032;-73
2022/04/26 04:14:00;;;;;;;15.02;5.10;;;7.40;99.90;;;;;;5056429;28;20348;-73
2022/04/26 04:16:26;;;;;;;15.68;5.20;;;7.30;99.90;;;;;;5053397;28;20079;-73
2022/04/26 04:21:36;;;;;;;15.00;4.22;;;7.30;99.90;;;;;;5036013;28;20037;-73
2022/04/26 04:24:03;;;;;;;9.45;4.57;;;7.30;99.90;;;;;;5047953;28;20055;-73
2022/04/26 04:26:28;;;;;;;15.70;4.47;;;7.30;99.90;;;;;;5038292;28;20143;-73
2022/04/26 04:28:54;;;;;;;11.68;4.35;;;7.30;99.90;;;;;;5068858;28;20048;-73
2022/04/26 04:31:20;;;;;;;13.55;4.47;;;7.30;99.90;;;;;;5037675;28;20052;-72
2022/04/26 04:33:45;;;;;;;11.30;4.35;;;7.30;99.90;;;;;;5051386;28;20064;-72
2022/04/26 04:36:11;;;;;;;12.90;4.18;;;7.30;99.90;;;;;;5053877;28;20033;-73
2022/04/26 04:38:37;;;;;;;12.38;4.60;;;7.30;99.90;;;;;;5070099;28;20055;-72
2022/04/26 04:41:03;;;;;;;19.95;4.80;;;7.30;99.90;;;;;;5064858;28;20346;-72
2022/04/26 04:43:28;;;;;;;13.60;4.40;;;7.30;99.90;;;;;;5045773;28;20155;-72
2022/04/26 04:45:54;;;;;;;12.80;4.35;;;7.30;99.90;;;;;;5064148;28;20498;-72
2022/04/26 04:48:19;;;;;;;19.85;4.60;;;7.30;99.90;;;;;;5054965;28;20099;-72
2022/04/26 04:50:45;;;;;;;11.35;4.60;;;7.30;99.90;;;;;;5050646;28;20056;-72
2022/04/26 04:53:11;;;;;;;12.40;4.60;;;7.30;99.90;;;;;;5042224;28;20480;-72
2022/04/26 04:55:39;;;;;;;14.05;4.18;;;7.30;99.90;;;;;;5042117;28;20126;-72
2022/04/26 04:58:06;;;;;;;18.98;4.57;;;7.30;99.90;;;;;;5039604;28;20048;-72
2022/04/26 05:00:31;;;;;;;12.10;4.57;;;7.30;99.90;;;;;;5050065;28;20044;-72
2022/04/26 05:02:58;;;;;;;15.43;4.10;;;7.30;99.90;;;;;;5063936;28;20040;-73
2022/04/26 05:05:24;;;;;;;13.70;4.00;;;7.30;99.90;;;;;;5066133;28;20044;-72
2022/04/26 05:07:52;;;;;;;14.27;5.32;;;7.40;99.90;;;;;;5042906;28;20053;-72
2022/04/26 05:10:18;;;;;;;11.82;4.20;;;7.40;99.90;;;;;;5062069;28;20048;-72
2022/04/26 05:12:44;;;;;;;10.70;4.20;;;7.50;99.90;;;;;;5041061;28;20040;-73
2022/04/26 05:15:10;;;;;;;9.13;3.83;;;7.50;99.90;;;;;;5049412;28;20581;-73
2022/04/26 05:17:36;;;;;;;15.15;5.70;;;7.50;99.90;;;;;;5066825;28;20102;-74
2022/04/26 05:20:02;;;;;;;11.27;4.20;;;7.50;99.90;;;;;;5050328;28;20048;-73
2022/04/26 05:22:27;;;;;;;9.77;4.68;;;7.60;99.90;;;;;;5069551;28;20045;-74
2022/04/26 05:24:53;;;;;;;9.18;4.60;;;7.60;99.90;;;;;;5058924;28;20049;-74
2022/04/26 05:27:20;;;;;;;11.60;4.80;;;7.70;99.90;;;;;;5049811;28;20094;-73
2022/04/26 05:29:46;;;;;;;12.35;4.57;;;7.70;99.90;;;;;;5060542;28;20040;-72
2022/04/26 05:32:11;;;;;;;11.18;4.20;;;7.70;99.90;;;;;;5032886;28;20048;-74
2022/04/26 05:34:37;;;;;;;12.75;3.92;;;7.70;99.90;;;;;;5051934;28;20041;-75
2022/04/26 05:37:06;;;;;;;15.85;4.65;;;7.80;99.90;;;;;;5063066;28;20037;-75
2022/04/26 05:39:32;;;;;;;9.85;4.13;;;7.80;99.90;;;;;;5033005;28;20049;-77
2022/04/26 05:41:58;;;;;;;11.93;4.45;;;7.90;99.90;;;;;;5052631;28;20556;-73
2022/04/26 05:44:23;;;;;;;13.52;4.32;;;7.90;99.90;;;;;;5034139;28;20041;-75
2022/04/26 05:46:49;;;;;;;13.10;5.40;;;8.00;99.90;;;;;;5044199;28;20447;-75
2022/04/26 05:49:14;;;;;;;14.00;4.47;;;8.00;99.90;;;;;;5053729;28;20056;-74
2022/04/26 05:51:40;;;;;;;12.07;4.55;;;8.00;99.90;;;;;;5032331;28;20132;-74
2022/04/26 05:54:05;;;;;;;13.93;5.18;;;8.10;99.90;;;;;;5035060;28;20041;-74
2022/04/26 05:56:34;;;;;;;13.07;5.00;;;8.10;99.90;;;;;;5050655;28;20087;-75
2022/04/26 05:58:59;;;;;;;14.60;4.88;;;8.20;99.90;;;;;;5052153;28;20669;-74
2022/04/26 06:01:25;;;;;;;20.27;4.53;;;8.20;99.90;;;;;;5041496;28;20045;-74
2022/04/26 06:03:50;;;;;;;17.08;5.00;;;8.30;99.90;;;;;;5030632;28;20061;-74
2022/04/26 06:06:16;;;;;;;15.13;4.95;;;8.40;99.90;;;;;;5023211;28;20045;-74
2022/04/26 06:08:42;;;;;;;20.17;4.72;;;8.40;99.90;;;;;;5018913;28;20033;-75
2022/04/26 06:11:08;;;;;;;12.25;4.40;;;8.40;99.90;;;;;;5023902;28;20061;-75
2022/04/26 06:13:33;;;;;;;13.77;4.53;;;8.50;99.90;;;;;;5046752;28;20041;-74
2022/04/26 06:15:59;;;;;;;16.73;4.45;;;8.60;99.90;;;;;;5018832;28;20060;-75
2022/04/26 06:18:25;;;;;;;6.60;3.45;;;8.70;99.90;;;;;;5038403;28;20472;-75
2022/04/26 06:20:50;;;;;;;11.80;3.22;;;8.70;99.90;;;;;;5038620;28;20071;-74
2022/04/26 06:23:16;;;;;;;10.63;3.58;;;8.80;99.90;;;;;;5033704;28;20443;-74
2022/04/26 06:25:41;;;;;;;9.07;3.35;;;8.80;99.90;;;;;;5021659;28;20079;-74
2022/04/26 06:28:09;;;;;;;18.55;3.63;;;8.90;99.90;;;;;;5032265;28;20045;-74
2022/04/26 06:30:39;;;;;;;21.08;3.78;;;8.90;99.90;;;;;;5038910;28;20076;-77
2022/04/26 06:33:05;;;;;;;8.90;3.10;;;9.00;99.90;;;;;;5035813;28;20084;-75
2022/04/26 06:35:31;;;;;;;9.70;2.90;;;9.10;99.90;;;;;;5048396;28;20071;-76
2022/04/26 06:37:58;;;;;;;8.35;3.50;;;9.10;99.90;;;;;;5013102;28;20484;-74
2022/04/26 06:40:25;;;;;;;18.38;3.10;;;9.10;99.90;;;;;;5013106;28;20107;-74
2022/04/26 06:42:51;;;;;;;11.75;2.60;;;9.10;99.90;;;;;;5027995;28;20103;-74
2022/04/26 06:45:16;;;;;;;11.40;2.75;;;9.10;99.90;;;;;;5044108;28;20424;-75
2022/04/26 06:47:45;;;;;;;9.23;3.05;;;9.10;99.90;;;;;;5012407;28;20374;-74
2022/04/26 06:50:11;;;;;;;11.32;3.35;;;9.20;99.90;;;;;;5019305;28;20045;-74
2022/04/26 06:52:36;;;;;;;6.65;2.83;;;9.20;99.90;;;;;;5049291;28;20037;-74
2022/04/26 06:55:03;;;;;;;9.73;2.85;;;9.20;99.90;;;;;;5046712;28;20473;-74
2022/04/26 06:57:28;;;;;;;16.20;3.05;;;9.20;99.90;;;;;;5044774;28;20049;-75
2022/04/26 06:59:54;;;;;;;7.85;3.22;;;9.30;99.90;;;;;;5037828;28;20455;-75
2022/04/26 07:02:20;;;;;;;8.55;3.00;;;9.30;99.90;;;;;;5016825;28;20434;-75
2022/04/26 07:04:49;;;;;;;13.90;3.50;;;9.40;99.90;;;;;;5028761;28;20433;-75
2022/04/26 07:07:15;;;;;;;15.10;3.13;;;9.50;99.90;;;;;;5047447;28;20037;-75
2022/04/26 07:09:40;;;;;;;8.70;2.63;;;9.50;99.90;;;;;;5044854;28;20461;-74
2022/04/26 07:12:07;;;;;;;11.43;2.53;;;9.60;99.90;;;;;;5029841;28;20154;-74
2022/04/26 07:14:33;;;;;;;8.52;2.70;;;9.70;99.90;;;;;;5029396;28;20052;-75
2022/04/26 07:17:00;;;;;;;13.65;2.55;;;9.70;99.90;;;;;;5029252;28;20645;-75
2022/04/26 07:19:25;;;;;;;9.57;2.78;;;9.80;99.90;;;;;;5035439;28;20113;-75
2022/04/26 07:21:51;;;;;;;7.05;2.65;;;9.80;99.90;;;;;;5042641;28;20360;-75
2022/04/26 07:24:17;;;;;;;8.88;3.25;;;9.90;99.90;;;;;;5028381;28;20128;-75
2022/04/26 07:26:43;;;;;;;12.70;2.60;;;10.00;99.90;;;;;;5026861;28;20059;-75
2022/04/26 07:29:09;;;;;;;11.07;3.08;;;10.00;99.90;;;;;;5029533;28;20388;-75
2022/04/26 07:31:36;;;;;;;12.43;2.80;;;10.10;99.90;;;;;;5032880;28;20053;-75
2022/04/26 07:34:20;;;;;;;10.05;2.90;;;10.10;99.90;;;;;;5047550;28;20354;-74
2022/04/26 07:36:50;;;;;;;8.80;2.45;;;10.20;99.90;;;;;;5044877;28;20412;-75
2022/04/26 07:39:17;;;;;;;12.10;3.13;;;10.30;99.90;;;;;;5030324;28;20081;-75
2022/04/26 07:41:45;;;;;;;10.45;3.70;;;10.30;99.90;;;;;;5034449;28;20590;-75
2022/04/26 07:44:11;;;;;;;10.40;3.03;;;10.40;99.90;;;;;;5034614;28;20072;-75
2022/04/26 07:46:37;;;;;;;13.65;2.53;;;10.40;99.90;;;;;;5042711;28;20427;-75
2022/04/26 07:49:05;;;;;;;5.05;2.30;;;10.40;99.90;;;;;;5029222;28;20151;-75
2022/04/26 07:51:33;;;;;;;15.75;3.38;;;10.40;99.90;;;;;;5046238;28;20420;-79
2022/04/26 07:54:02;;;;;;;8.25;2.95;;;10.40;99.90;;;;;;5026618;28;20042;-74
2022/04/26 07:56:28;;;;;;;8.93;3.53;;;10.40;99.90;;;;;;5029561;28;20166;-75
2022/04/26 07:58:54;;;;;;;10.02;3.08;;;10.50;99.90;;;;;;5031767;28;20365;-74
2022/04/26 08:01:20;;;;;;;10.27;3.38;;;10.60;99.90;;;;;;5033176;28;20146;-75
2022/04/26 08:03:46;;;;;;;8.25;3.40;;;10.70;99.90;;;;;;5052333;28;20037;-74
2022/04/26 08:06:12;;;;;;;7.97;2.80;;;10.70;99.90;;;;;;5057922;28;20399;-76
2022/04/26 08:08:39;;;;;;;11.70;2.58;;;10.70;99.90;;;;;;5047168;28;20033;-74
2022/04/26 08:11:05;;;;;;;9.10;2.50;;;10.60;99.90;;;;;;5062808;28;20051;-74
2022/04/26 08:13:31;;;;;;;12.20;3.10;;;10.70;99.90;;;;;;5056637;28;20463;-74
2022/04/26 08:15:56;;;;;;;7.90;2.45;;;10.60;99.90;;;;;;5049631;28;20151;-74
2022/04/26 08:18:23;;;;;;;10.63;2.70;;;10.60;99.90;;;;;;5032097;28;20060;-75
2022/04/26 08:20:49;;;;;;;10.93;2.40;;;10.60;99.90;;;;;;5029927;28;20052;-74
2022/04/26 08:23:18;;;;;;;10.13;2.85;;;10.50;99.90;;;;;;5031276;28;20490;-75
2022/04/26 08:28:28;;;;;;;8.15;2.40;;;10.50;99.90;;;;;;5049415;28;20105;-75
2022/04/26 08:30:56;;;;;;;11.38;2.50;;;10.50;99.90;;;;;;5051607;28;20047;-74
2022/04/26 08:33:24;;;;;;;8.02;2.20;;;10.60;99.90;;;;;;5052168;28;20124;-75
2022/04/26 08:35:50;;;;;;;6.28;2.45;;;10.60;99.90;;;;;;5057179;28;20047;-74
2022/04/26 08:38:15;;;;;;;8.75;2.60;;;10.60;99.90;;;;;;5051194;28;20116;-74
2022/04/26 08:40:44;;;;;;;7.63;2.85;;;10.60;99.90;;;;;;5051161;28;20059;-74
2022/04/26 08:43:10;;;;;;;10.45;3.42;;;10.60;99.90;;;;;;5032159;28;20045;-75
2022/04/26 08:45:38;;;;;;;8.63;2.20;;;10.60;99.90;;;;;;5063210;28;20480;-74
2022/04/26 08:51:03;;;;;;;5.78;2.22;;;10.60;99.90;;;;;;5033572;28;20049;-75
2022/04/26 08:53:31;;;;;;;8.63;2.78;;;10.50;99.90;;;;;;5063145;28;20132;-73
2022/04/26 08:56:01;;;;;;;7.30;2.30;;;10.50;99.90;;;;;;5053507;28;20135;-73
2022/04/26 08:58:29;;;;;;;5.75;2.45;;;10.50;99.90;;;;;;5033623;28;20128;-74
2022/04/26 09:01:22;;;;;;;7.80;2.50;;;10.50;99.90;;;;;;5050818;28;20052;-74
2022/04/26 09:03:59;;;;;;;10.77;2.45;;;10.50;99.90;;;;;;5048035;28;20139;-75
2022/04/26 09:06:40;;;;;;;10.50;2.88;;;10.50;99.90;;;;;;5050746;28;20052;-75
2022/04/26 09:09:09;;;;;;;13.48;2.70;;;10.50;99.90;;;;;;5033636;28;20049;-74
2022/04/26 09:11:38;;;;;;;8.25;2.38;;;10.60;99.90;;;;;;5032655;28;20139;-75
2022/04/26 09:14:10;;;;;;;5.43;2.30;;;10.60;99.90;;;;;;5050378;28;20041;-74
2022/04/26 09:16:35;;;;;;;;;;;10.80;99.90;;;;;;5071205;28;20067;-74
2022/04/26 09:19:06;;;;;;;13.38;2.80;;;10.80;99.90;;;;;;5037316;28;20309;-74
2022/04/26 09:21:32;;;;;;;7.93;2.50;;;10.90;99.90;;;;;;5070949;28;20128;-74
2022/04/26 09:24:04;;;;;;;6.20;2.33;;;10.90;99.90;;;;;;5060556;28;20460;-73
2022/04/26 09:26:40;;;;;;;8.75;2.60;;;11.00;99.90;;;;;;5058471;28;20080;-74
2022/04/26 09:29:08;;;;;;;6.63;2.05;;;11.10;99.90;;;;;;5037709;28;20045;-73
2022/04/26 09:31:35;;;;;;;13.35;3.05;;;11.00;99.90;;;;;;5039784;28;20111;-73
2022/04/26 09:34:12;;;;;;;4.38;2.47;;;11.10;99.90;;;;;;5051051;28;20045;-74
2022/04/26 09:37:07;;;;;;;6.53;2.63;;;11.20;99.90;;;;;;5045466;28;20043;-75
2022/04/26 09:39:33;;;;;;;12.27;3.40;;;11.30;99.90;;;;;;5041188;28;20469;-73
2022/04/26 09:41:59;;;;;;;5.60;2.13;;;11.40;99.90;;;;;;5034820;28;20060;-74
2022/04/26 09:44:34;;;;;;;9.00;2.75;;;11.50;99.90;;;;;;5064986;28;20048;-75
2022/04/26 09:47:00;;;;;;;8.18;2.40;;;11.50;99.90;;;;;;5049841;28;20404;-74
2022/04/26 09:49:34;;;;;;;9.90;2.30;;;11.50;99.90;;;;;;5066312;28;20041;-74
2022/04/26 09:52:03;;;;;;;9.63;2.45;;;11.50;99.90;;;;;;5054301;28;20052;-74
2022/04/26 09:54:29;;;;;;;7.57;2.65;;;11.60;99.90;;;;;;5066377;28;20052;-74
2022/04/26 09:56:59;;;;;;;7.55;2.28;;;11.60;99.90;;;;;;5062525;28;20151;-73
2022/04/26 09:59:32;;;;;;;10.13;2.25;;;11.80;99.90;;;;;;5034612;28;20053;-74
2022/04/26 10:01:59;;;;;;;27.05;2.80;;;11.90;99.90;;;;;;5037857;28;20208;-73
2022/04/26 10:04:27;;;;;;;8.50;2.33;;;11.90;99.30;;;;;;5086274;28;20506;-74
2022/04/26 10:07:02;;;;;;;10.43;2.55;;;12.00;99.40;;;;;;5053815;28;20552;-75
2022/04/26 10:09:29;;;;;;;7.47;2.45;;;12.00;99.10;;;;;;5052799;28;20052;-75
2022/04/26 10:12:01;;;;;;;6.63;2.40;;;12.00;99.10;;;;;;5015102;28;20064;-75
2022/04/26 10:14:29;;;;;;;7.07;2.25;;;12.10;99.10;;;;;;5055986;28;20510;-73
2022/04/26 10:16:56;;;;;;;10.77;2.50;;;12.20;99.10;;;;;;5067650;28;20472;-75
2022/04/26 10:19:36;;;;;;;7.85;2.10;;;12.30;98.90;;;;;;5066309;28;20147;-75
2022/04/26 10:22:02;;;;;;;6.45;2.53;;;12.40;98.60;;;;;;5039271;28;20041;-75
2022/04/26 10:24:31;;;;;;;6.97;2.67;;;12.50;98.30;;;;;;5048264;28;20067;-74
2022/04/26 10:27:16;;;;;;;4.60;2.00;;;12.60;98.00;;;;;;5053193;28;20052;-76
2022/04/26 10:29:46;;;;;;;4.70;2.05;;;12.70;97.50;;;;;;5071067;28;20051;-75
2022/04/26 10:32:31;;;;;;;8.52;2.20;;;12.80;97.30;;;;;;5067146;28;20052;-75
2022/04/26 10:35:26;;;;;;;5.93;2.40;;;12.80;96.50;;;;;;5032582;28;20045;-75
2022/04/26 10:38:13;;;;;;;28.05;3.60;;;12.70;96.70;;;;;;5051771;28;20045;-77
2022/04/26 10:41:00;;;;;;;7.45;2.67;;;12.70;96.90;;;;;;5039747;28;20464;-77
2022/04/26 10:43:32;;;;;;;5.78;2.47;;;12.70;96.30;;;;;;5048552;28;20445;-75
2022/04/26 10:46:13;;;;;;;8.27;2.83;;;12.60;96.20;;;;;;5044067;28;20051;-77
2022/04/26 10:48:39;;;;;;;6.50;2.10;;;12.70;96.00;;;;;;5052136;28;20040;-76
2022/04/26 10:51:39;;;;;;;6.95;2.38;;;12.80;96.10;;;;;;5066681;28;20113;-75
2022/04/26 10:54:05;;;;;;;7.18;2.60;;;13.10;94.90;;;;;;5062226;28;20404;-77
2022/04/26 10:56:34;;;;;;;10.18;2.55;;;13.20;95.00;;;;;;5059072;28;20040;-75
2022/04/26 10:59:00;;;;;;;10.02;2.72;;;13.20;94.40;;;;;;5053759;28;20097;-76
2022/04/26 11:01:28;;;;;;;7.10;2.67;;;13.20;94.60;;;;;;5037152;28;20045;-74
2022/04/26 11:03:56;;;;;;;3.92;2.15;;;13.30;95.00;;;;;;5031888;28;20056;-75
2022/04/26 11:06:37;;;;;;;6.65;2.45;;;13.50;94.70;;;;;;5063377;28;20033;-74
2022/04/26 11:09:10;;;;;;;5.32;2.30;;;13.60;93.10;;;;;;5038296;28;20076;-75
2022/04/26 11:11:53;;;;;;;6.47;2.72;;;13.50;93.50;;;;;;5057417;28;20037;-74
2022/04/26 11:14:22;;;;;;;7.03;2.30;;;13.70;93.30;;;;;;5039491;28;20048;-74
2022/04/26 11:16:55;;;;;;;7.82;2.65;;;13.50;93.00;;;;;;5054072;28;20044;-73
2022/04/26 11:19:50;;;;;;;5.97;2.55;;;13.50;92.50;;;;;;5030443;28;20147;-74
2022/04/26 11:22:18;;;;;;;12.07;2.35;;;13.60;92.70;;;;;;5039337;28;20095;-74
2022/04/26 11:30:29;;;;;;;6.57;2.15;;;13.90;91.50;;;;;;5050598;28;20140;-78
2022/04/26 11:33:18;;;;;;;8.65;1.90;;;13.90;91.60;;;;;;5043731;28;20040;-74
2022/04/26 11:35:44;;;;;;;28.25;2.72;;;14.10;91.10;;;;;;5053274;28;20045;-77
2022/04/26 11:38:15;;;;;;;9.82;2.00;;;14.20;90.90;;;;;;5067669;28;20651;-77
2022/04/26 11:40:49;;;;;;;9.98;2.45;;;14.10;90.10;;;;;;5057670;28;20391;-75
2022/04/26 11:43:19;;;;;;;6.82;1.83;;;14.00;90.20;;;;;;5051822;28;20449;-74
2022/04/26 11:45:47;;;;;;;5.13;2.13;;;14.00;90.40;;;;;;5033078;28;20393;-74
2022/04/26 11:48:15;;;;;;;4.50;1.90;;;14.40;90.60;;;;;;5062570;28;20045;-75
2022/04/26 11:50:42;;;;;;;6.22;2.38;;;14.30;90.20;;;;;;5066334;28;20044;-75
2022/04/26 11:53:09;;;;;;;9.00;2.20;;;14.40;88.30;;;;;;5067495;28;20040;-75
2022/04/26 11:55:43;;;;;;;8.23;2.40;;;14.60;88.00;;;;;;5056493;28;20198;-75
2022/04/26 11:58:25;;;;;;;8.73;2.17;;;14.80;87.20;;;;;;5043984;28;20057;-75
2022/04/26 12:01:03;;;;;;;3.20;1.55;;;14.80;85.90;;;;;;5042604;28;20132;-77
2022/04/26 12:03:30;;;;;;;5.45;2.00;;;14.70;85.20;;;;;;5041958;28;20060;-75
2022/04/26 12:06:07;;;;;;;6.15;2.00;;;14.90;84.80;;;;;;5040604;28;20087;-75
2022/04/26 12:08:43;;;;;;;10.20;2.63;;;14.90;82.50;;;;;;5034086;28;20055;-73
2022/04/26 12:11:26;;;;;;;12.05;2.30;;;14.80;82.10;;;;;;5052201;28;20080;-75
2022/04/26 12:14:01;;;;;;;6.78;2.63;;;14.50;83.10;;;;;;5032635;28;20110;-77
2022/04/26 12:16:31;;;;;;;4.93;2.17;;;14.60;84.20;;;;;;5052199;28;20127;-74
2022/04/26 12:19:03;;;;;;;6.93;2.28;;;14.70;85.60;;;;;;5052075;28;20088;-74
2022/04/26 12:21:54;;;;;;;5.90;2.92;;;14.80;84.40;;;;;;5033839;28;20417;-76
2022/04/26 12:24:22;;;;;;;4.90;1.90;;;14.80;83.10;;;;;;5064157;28;20086;-77
2022/04/26 12:26:57;;;;;;;9.93;2.10;;;15.00;84.40;;;;;;5052443;28;20123;-74
2022/04/26 12:29:29;;;;;;;10.27;2.28;;;15.10;83.30;;;;;;5054259;28;20123;-75
2022/04/26 12:31:56;;;;;;;4.82;2.15;;;15.10;82.20;;;;;;5071891;28;20080;-73
2022/04/26 12:34:29;;;;;;;5.20;2.15;;;15.00;80.90;;;;;;5073810;28;20136;-74
2022/04/26 12:37:01;;;;;;;5.35;2.05;;;14.90;82.10;;;;;;5074354;28;20056;-75
2022/04/26 12:39:48;;;;;;;5.95;2.25;;;15.10;82.10;;;;;;5053128;28;20048;-74
2022/04/26 12:42:25;;;;;;;4.53;1.80;;;15.30;80.70;;;;;;5068838;28;20076;-77
2022/04/26 12:44:53;;;;;;;6.82;2.03;;;15.40;79.90;;;;;;5068481;28;20545;-75
2022/04/26 12:52:53;;;;;;;6.70;2.35;;;15.60;78.80;;;;;;5054497;28;20057;-73
2022/04/26 12:55:26;;;;;;;4.07;1.75;;;15.70;77.60;;;;;;5037219;28;20041;-73
2022/04/26 12:57:56;;;;;;;15.10;2.40;;;16.00;76.50;;;;;;5043958;28;20048;-73
2022/04/26 13:00:23;;;;;;;12.05;2.28;;;15.80;76.20;;;;;;5038357;28;20075;-74
2022/04/26 13:02:52;;;;;;;11.45;2.92;;;15.70;75.80;;;;;;5031466;28;20057;-73
2022/04/26 13:05:18;;;;;;;3.28;1.50;;;15.60;75.60;;;;;;5054121;28;20363;-74
2022/04/26 13:07:46;;;;;;;3.05;1.90;;;15.50;75.40;;;;;;5044802;28;20128;-75
2022/04/26 13:10:12;;;;;;;3.65;2.00;;;15.50;75.00;;;;;;5051431;28;20060;-73
2022/04/26 13:12:38;;;;;;;3.70;1.83;;;15.30;75.00;;;;;;5067029;28;20078;-72
2022/04/26 13:15:08;;;;;;;6.85;2.08;;;15.30;75.00;;;;;;5070433;28;20454;-72
2022/04/26 13:17:35;;;;;;;7.95;2.45;;;15.40;75.70;;;;;;5047498;28;20167;-72
2022/04/26 13:20:01;;;;;;;8.38;2.00;;;15.50;76.00;;;;;;5036720;28;20461;-72
2022/04/26 13:22:26;;;;;;;4.28;1.95;;;15.70;75.90;;;;;;5054785;28;20041;-71
2022/04/26 13:24:52;;;;;;;6.95;2.28;;;15.90;76.30;;;;;;5058578;28;20040;-72
2022/04/26 13:27:18;;;;;;;14.07;2.10;;;16.00;75.00;;;;;;5041681;28;20449;-72
2022/04/26 13:29:44;;;;;;;6.90;1.90;;;16.00;74.00;;;;;;5056770;28;20056;-73
2022/04/26 13:32:10;;;;;;;5.93;1.90;;;15.90;74.40;;;;;;5054952;28;20041;-72
2022/04/26 13:34:36;;;;;;;7.95;2.50;;;15.90;73.10;;;;;;5060734;28;20043;-71
2022/04/26 13:37:01;;;;;;;3.80;1.70;;;15.80;72.50;;;;;;5042416;28;20369;-72
2022/04/26 13:39:27;;;;;;;5.07;2.42;;;15.80;72.40;;;;;;5033881;28;20052;-72
2022/04/26 13:41:52;;;;;;;5.00;2.05;;;15.70;73.30;;;;;;5057530;28;20475;-72
2022/04/26 13:44:21;;;;;;;9.07;2.63;;;15.80;72.00;;;;;;5038306;28;20045;-72
2022/04/26 13:46:47;;;;;;;5.80;2.17;;;15.50;71.80;;;;;;5037205;28;20492;-71
2022/04/26 13:49:13;;;;;;;7.18;2.42;;;15.30;72.80;;;;;;5065859;28;20045;-71
2022/04/26 13:51:39;;;;;;;5.68;2.08;;;15.10;73.10;;;;;;5084580;28;20066;-72
2022/04/26 13:54:08;;;;;;;8.82;2.60;;;15.00;73.80;;;;;;5063439;28;20040;-72
2022/04/26 13:56:34;;;;;;;6.22;1.98;;;14.90;74.20;;;;;;5038722;28;20135;-71
2022/04/26 13:59:00;;;;;;;5.50;1.85;;;14.80;74.00;;;;;;5036198;28;20127;-71
2022/04/26 14:01:25;;;;;;;4.93;1.90;;;14.80;73.80;;;;;;5051059;28;20385;-71
2022/04/26 14:03:54;;;;;;;6.68;2.10;;;14.60;73.90;;;;;;5063849;28;20397;-72
2022/04/26 14:06:21;;;;;;;9.77;2.15;;;14.50;73.80;;;;;;5069454;28;20051;-71
2022/04/26 14:08:50;;;;;;;6.57;2.30;;;14.50;74.00;;;;;;5069500;28;20049;-71
2022/04/26 14:11:21;;;;;;;9.85;2.22;;;14.40;73.80;;;;;;5069710;28;20045;-71
2022/04/26 14:22:00;;;;;;;4.75;2.45;;;13.90;75.00;;;;;;5049941;28;20110;-72
2022/04/26 14:24:25;;;;;;;11.43;3.15;;;13.80;75.00;;;;;;5049382;28;20041;-71
2022/04/26 14:26:51;;;;;;;5.32;1.98;;;13.90;75.60;;;;;;5030543;28;20109;-71
2022/04/26 14:29:17;;;;;;;15.32;2.08;;;14.00;76.60;;;;;;5030986;28;20045;-71
2022/04/26 14:31:45;;;;;;;11.27;1.88;;;14.20;75.50;;;;;;5050097;28;20037;-71
2022/04/26 14:34:11;;;;;;;6.20;1.92;;;14.40;76.20;;;;;;5032086;28;20045;-71
2022/04/26 14:36:37;;;;;;;6.65;1.67;;;14.70;76.00;;;;;;5036040;28;20033;-71
2022/04/26 14:39:03;;;;;;;5.82;1.98;;;14.90;75.80;;;;;;5034328;28;20544;-72
2022/04/26 14:41:29;;;;;;;4.85;2.30;;;15.10;74.10;;;;;;5057833;28;20041;-72
2022/04/26 14:43:55;;;;;;;10.57;2.22;;;15.20;73.50;;;;;;5057316;28;20444;-72
2022/04/26 14:46:24;;;;;;;9.25;2.03;;;15.30;75.00;;;;;;5045567;28;20041;-71
2022/04/26 14:48:49;;;;;;;7.63;2.10;;;15.90;74.60;;;;;;5042786;28;20041;-71
2022/04/26 14:51:15;;;;;;;7.30;2.13;;;16.20;72.80;;;;;;5048558;28;20412;-71
2022/04/26 14:53:40;;;;;;;5.47;2.00;;;16.30;71.70;;;;;;5055809;28;20059;-72
2022/04/26 14:56:09;;;;;;;8.18;1.90;;;16.50;72.80;;;;;;5048741;28;20045;-72
2022/04/26 14:58:35;;;;;;;5.88;1.98;;;17.10;71.70;;;;;;5030815;28;20045;-72
2022/04/26 15:01:01;;;;;;;8.80;2.08;;;17.70;69.70;;;;;;5058654;28;20059;-70
2022/04/26 15:03:27;;;;;;;10.57;2.55;;;18.00;69.80;;;;;;5048462;28;20381;-71
2022/04/26 15:05:54;;;;;;;4.82;1.60;;;18.70;69.10;;;;;;5044672;28;20049;-70
2022/04/26 15:11:04;;;;;;;7.45;2.38;;;20.00;63.10;;;;;;5036831;28;20076;-71
2022/04/26 15:18:58;;;;;;;6.35;2.30;;;22.20;59.90;;;;;;5060011;28;20056;-71
2022/04/26 15:21:24;;;;;;;6.72;1.98;;;23.10;57.80;;;;;;5031534;28;20101;-71
2022/04/26 15:23:50;;;;;;;5.25;1.67;;;23.60;55.40;;;;;;5050537;28;20049;-71
2022/04/26 15:26:16;;;;;;;7.88;2.33;;;23.50;52.70;;;;;;5059906;28;20486;-71
2022/04/26 15:28:42;;;;;;;5.22;2.25;;;22.90;51.70;;;;;;5039332;28;20086;-71
2022/04/26 15:31:07;;;;;;;6.40;2.10;;;22.40;52.10;;;;;;5063091;28;20076;-71
2022/04/26 15:33:33;;;;;;;3.30;1.85;;;22.50;52.70;;;;;;5061484;28;20051;-71
2022/04/26 15:35:59;;;;;;;8.73;3.75;;;22.60;52.40;;;;;;5043712;28;20041;-72
2022/04/26 15:38:28;;;;;;;4.32;1.98;;;22.90;51.30;;;;;;5046764;28;20132;-72
2022/04/26 15:40:54;;;;;;;5.45;1.60;;;22.90;51.30;;;;;;5051824;28;20056;-72
2022/04/26 15:43:20;;;;;;;6.75;2.08;;;23.40;51.20;;;;;;5036087;28;20459;-81
2022/04/26 15:45:48;;;;;;;6.03;1.92;;;24.00;50.00;;;;;;5034177;28;20045;-81
2022/04/26 15:48:14;;;;;;;5.88;1.63;;;24.10;48.30;;;;;;5026451;28;20045;-80
2022/04/26 15:50:41;;;;;;;5.88;2.35;;;24.20;48.00;;;;;;5051975;28;20403;-80
2022/04/26 15:53:08;;;;;;;4.97;2.13;;;24.30;47.90;;;;;;5049651;28;20052;-81
2022/04/26 15:55:37;;;;;;;5.30;2.08;;;24.50;46.90;;;;;;5042736;28;20052;-80
2022/04/26 15:58:02;;;;;;;7.13;2.53;;;24.70;46.40;;;;;;5036464;28;20052;-81
2022/04/26 16:00:31;;;;;;;5.18;1.90;;;24.60;45.00;;;;;;5040654;28;20369;-81
2022/04/26 16:02:56;;;;;;;3.40;1.85;;;24.20;44.70;;;;;;5029824;28;20064;-79
2022/04/26 16:05:22;;;;;;;5.35;1.88;;;23.80;44.60;;;;;;5055273;28;20170;-80
2022/04/26 16:07:48;;;;;;;7.00;2.38;;;23.60;45.00;;;;;;5042066;28;20761;-80
2022/04/26 16:21:10;;;;;;;4.55;2.15;;;20.20;48.00;;;;;;5052437;28;20049;-79
2022/04/26 16:23:38;;;;;;;7.70;1.80;;;19.40;49.00;;;;;;5038682;28;20033;-81
2022/04/26 16:26:06;;;;;;;5.70;2.13;;;18.60;50.20;;;;;;5038320;28;20163;-80
2022/04/26 16:28:37;;;;;;;4.72;2.25;;;18.00;51.40;;;;;;5035196;28;20167;-80
2022/04/26 16:31:03;;;;;;;6.78;1.65;;;17.50;52.70;;;;;;5056421;28;20084;-80
2022/04/26 16:33:49;;;;;;;7.20;2.10;;;17.20;53.20;;;;;;5057294;28;20048;-80
2022/04/26 16:36:17;;;;;;;14.02;2.03;;;16.70;53.50;;;;;;5033144;28;20076;-79
2022/04/26 16:38:43;;;;;;;6.05;1.75;;;16.20;54.40;;;;;;5034177;28;20148;-80
2022/04/26 16:41:09;;;;;;;8.70;1.95;;;15.80;55.40;;;;;;5047379;28;20476;-79
2022/04/26 16:43:34;;;;;;;5.13;1.83;;;15.50;55.70;;;;;;5043741;28;20045;-79
2022/04/26 16:46:03;;;;;;;5.90;1.98;;;15.30;56.40;;;;;;5047803;28;20116;-79
2022/04/26 16:48:28;;;;;;;5.78;2.28;;;15.20;57.30;;;;;;5040011;28;20521;-79
2022/04/26 16:50:54;;;;;;;8.00;2.50;;;15.50;57.60;;;;;;5059503;28;20136;-79
2022/04/26 16:53:20;;;;;;;8.23;1.70;;;16.20;58.20;;;;;;5069438;28;20076;-78
2022/04/26 16:55:48;;;;;;;7.22;2.00;;;17.10;56.10;;;;;;5058417;28;20067;-79
2022/04/26 16:58:16;;;;;;;6.75;1.83;;;17.50;55.50;;;;;;5055655;28;20437;-79
2022/04/26 17:00:44;;;;;;;3.17;1.50;;;17.70;55.30;;;;;;5055917;28;20401;-79
2022/04/26 17:03:10;;;;;;;4.57;1.80;;;17.80;54.90;;;;;;5055188;28;20080;-79
2022/04/26 17:05:36;;;;;;;4.63;1.77;;;18.00;54.60;;;;;;5064554;28;20510;-79
2022/04/26 17:08:02;;;;;;;5.30;1.77;;;18.10;54.50;;;;;;5059615;28;20127;-77
2022/04/26 17:10:28;;;;;;;2.88;1.60;;;18.10;54.10;;;;;;5033463;28;20053;-76
2022/04/26 17:12:54;;;;;;;6.13;1.90;;;17.80;53.40;;;;;;5049728;28;20048;-77
2022/04/26 17:15:20;;;;;;;4.80;1.63;;;17.30;53.70;;;;;;5065943;28;20396;-77